Flight Track Log - Related Links

Times and Time Zones

All times are in EDT time to prevent confusion due to time zone crossing. See the EGF3994 flight status page for this flight to view local times or setup timezone preferences in your user account.

Time Position Orientation Groundspeed Altitude Reporting Facility
EDT Latitude Longitude Course Direction KTS MPH feet Rate Location/Type
Mon 18:43:46 41.9333 -87.9000 90° East 161 185 2,000  Level Chicago TRACON
Mon 18:44:46 41.9167 -87.8500 114° Southeast 224 258 3,900 2,118 Climbing Chicago TRACON
Mon 18:45:00 41.9667 -87.6128 90° East  Level FlightAware Approximate
Mon 18:46:00 41.9603 -87.4698 98° East  Level FlightAware Approximate
Mon 18:46:36 41.9589 -87.6850 71° East 286 329 8,000  Level Chicago Center
Mon 18:47:00 41.9472 -87.3273 95° East  Level FlightAware Approximate
Mon 18:47:38 41.9700 -87.5711 82° East 320 368 10,400  Level Chicago Center
Mon 18:48:00 41.9370 -87.1845 95° East  Level FlightAware Approximate
Mon 18:48:40 41.9619 -87.4506 95° East 324 373 12,500  Level Chicago Center
Mon 18:49:00 41.9333 -87.0608 90° East  Level FlightAware Approximate
Mon 18:49:42 41.9564 -87.3222 93° East 339 390 14,100  Level Chicago Center
Mon 18:50:44 41.9375 -87.1536 99° East 377 434 15,600 1,645 Climbing Chicago Center
Mon 18:51:46 41.9211 -87.0075 99° East 394 453 17,500 1,887 Climbing Chicago Center
Mon 18:52:48 41.9039 -86.8619 99° East 395 455 19,500 1,548 Climbing Chicago Center
Mon 18:53:50 41.8889 -86.7156 98° East 397 457 20,700 1,210 Climbing Chicago Center
Mon 18:54:52 41.8703 -86.5486 98° East 422 486 22,000 1,113 Climbing Chicago Center
Mon 18:55:54 41.8514 -86.3875 99° East 434 499 23,000 484 Climbing Chicago Center
Mon 18:56:56 41.8311 -86.2192 99° East 454 522 23,000  Level Chicago Center
Mon 18:57:58 41.8111 -86.0444 99° East 471 542 23,000  Level Chicago Center
Mon 18:59:00 41.7861 -85.8358 99° East 472 543 23,000  Level Chicago Center
Mon 19:00:05 41.7658 -85.6628 99° East 470 541 23,000  Level Chicago Center
Mon 19:01:07 41.7078 -85.5131 117° Southeast 461 531 23,000  Level Chicago Center
Mon 19:02:09 41.5781 -85.4392 157° South 454 522 23,000  Level Chicago Center
Mon 19:03:11 41.4594 -85.3889 162° South 448 516 23,000  Level Chicago Center
Mon 19:04:13 41.3414 -85.3378 162° South 447 514 23,000 -192 Level Chicago Center
Mon 19:05:16 41.2400 -85.2406 144° Southeast 466 536 22,600 -1,008 Descending Chicago Center
Mon 19:06:18 41.1508 -85.1247 136° Southeast 459 528 20,900 -1,887 Descending Chicago Center
Mon 19:07:20 41.0492 -84.9933 136° Southeast 433 498 18,700 -1,984 Descending Chicago Center
Mon 19:08:22 40.9656 -84.8864 136° Southeast 422 486 16,800 -1,742 Descending Chicago Center
Mon 19:09:24 40.8828 -84.7836 137° Southeast 414 476 15,100 -919 Descending Chicago Center
Mon 19:10:26 40.8025 -84.6828 136° Southeast 405 466 14,900 -48 Descending Chicago Center
Mon 19:11:28 40.7239 -84.5822 136° Southeast 398 458 15,000 48 Climbing Chicago Center
Mon 19:12:30 40.6272 -84.4628 137° Southeast 398 458 15,000 -58 Level Chicago Center
Mon 19:13:11 40.5839 -84.4083 136° Southeast 400 460 14,900 -706 Descending Indianapolis Center
Mon 19:14:12 40.5036 -84.3094 137° Southeast 393 452 13,800 -1,317 Descending Indianapolis Center
Mon 19:15:14 40.4061 -84.2053 141° Southeast 383 441 12,200 -1,561 Descending Indianapolis Center
Mon 19:16:15 40.3147 -84.2017 178° South 290 334 10,600 -2,016 Descending Indianapolis Center
Mon 19:17:16 40.2347 -84.2072 183° South 278 320 8,100 -2,311 Descending Indianapolis Center
Mon 19:18:17 40.1589 -84.2108 182° South 270 311 5,900 -1,835 Descending Indianapolis Center
Mon 19:19:17 40.0914 -84.2156 183° South 242 278 4,400 -1,500 Descending Indianapolis Center

Login

Don't have an account? Register now (free) for customized features, flight alerts, and more!